sensor_id;sensor_type;location;lat;lon;timestamp;P1;durP1;ratioP1;P2;durP2;ratioP2
4963;SDS011;2497;47.410;9.740;2023-11-18T00:01:25;1.00;;;0.90;;
4963;SDS011;2497;47.410;9.740;2023-11-18T00:04:32;1.63;;;1.13;;
4963;SDS011;2497;47.410;9.740;2023-11-18T00:07:00;1.37;;;1.20;;
4963;SDS011;2497;47.410;9.740;2023-11-18T00:09:29;1.40;;;0.93;;
4963;SDS011;2497;47.410;9.740;2023-11-18T00:11:56;1.97;;;1.00;;
4963;SDS011;2497;47.410;9.740;2023-11-18T00:14:23;1.10;;;1.00;;
4963;SDS011;2497;47.410;9.740;2023-11-18T00:16:50;1.10;;;0.90;;
4963;SDS011;2497;47.410;9.740;2023-11-18T00:19:19;1.20;;;0.80;;
4963;SDS011;2497;47.410;9.740;2023-11-18T00:21:48;0.90;;;0.80;;
4963;SDS011;2497;47.410;9.740;2023-11-18T00:24:15;1.60;;;1.10;;
4963;SDS011;2497;47.410;9.740;2023-11-18T00:26:42;1.00;;;0.80;;
4963;SDS011;2497;47.410;9.740;2023-11-18T00:29:09;2.20;;;1.10;;
4963;SDS011;2497;47.410;9.740;2023-11-18T00:31:36;1.00;;;0.90;;
4963;SDS011;2497;47.410;9.740;2023-11-18T00:34:06;1.00;;;0.90;;
4963;SDS011;2497;47.410;9.740;2023-11-18T00:36:33;0.80;;;0.80;;
4963;SDS011;2497;47.410;9.740;2023-11-18T00:39:02;0.80;;;0.70;;
4963;SDS011;2497;47.410;9.740;2023-11-18T00:41:32;0.80;;;0.70;;
4963;SDS011;2497;47.410;9.740;2023-11-18T00:43:59;11.00;;;1.00;;
4963;SDS011;2497;47.410;9.740;2023-11-18T00:46:26;0.80;;;0.70;;
4963;SDS011;2497;47.410;9.740;2023-11-18T00:48:53;1.20;;;0.83;;
4963;SDS011;2497;47.410;9.740;2023-11-18T00:51:23;1.33;;;1.03;;
4963;SDS011;2497;47.410;9.740;2023-11-18T00:53:52;1.00;;;0.90;;
4963;SDS011;2497;47.410;9.740;2023-11-18T00:56:21;2.27;;;1.07;;
4963;SDS011;2497;47.410;9.740;2023-11-18T00:58:48;0.90;;;0.80;;
4963;SDS011;2497;47.410;9.740;2023-11-18T01:01:16;2.33;;;0.90;;
4963;SDS011;2497;47.410;9.740;2023-11-18T01:03:43;0.90;;;0.80;;
4963;SDS011;2497;47.410;9.740;2023-11-18T01:06:11;1.73;;;1.63;;
4963;SDS011;2497;47.410;9.740;2023-11-18T01:08:38;0.80;;;0.70;;
4963;SDS011;2497;47.410;9.740;2023-11-18T01:11:05;0.87;;;0.80;;
4963;SDS011;2497;47.410;9.740;2023-11-18T01:13:34;0.80;;;0.70;;
4963;SDS011;2497;47.410;9.740;2023-11-18T01:16:01;0.90;;;0.80;;
4963;SDS011;2497;47.410;9.740;2023-11-18T01:18:29;1.10;;;0.90;;
4963;SDS011;2497;47.410;9.740;2023-11-18T01:20:56;1.10;;;1.00;;
4963;SDS011;2497;47.410;9.740;2023-11-18T01:23:24;1.00;;;0.90;;
4963;SDS011;2497;47.410;9.740;2023-11-18T01:25:52;1.37;;;1.27;;
4963;SDS011;2497;47.410;9.740;2023-11-18T01:28:21;0.80;;;0.73;;
4963;SDS011;2497;47.410;9.740;2023-11-18T01:30:51;1.20;;;1.10;;
4963;SDS011;2497;47.410;9.740;2023-11-18T01:33:21;0.80;;;0.70;;
4963;SDS011;2497;47.410;9.740;2023-11-18T01:39:05;1.77;;;1.23;;
4963;SDS011;2497;47.410;9.740;2023-11-18T01:41:33;0.80;;;0.70;;
4963;SDS011;2497;47.410;9.740;2023-11-18T01:44:00;1.10;;;1.00;;
4963;SDS011;2497;47.410;9.740;2023-11-18T01:46:31;0.90;;;0.80;;
4963;SDS011;2497;47.410;9.740;2023-11-18T01:49:01;0.80;;;0.70;;
4963;SDS011;2497;47.410;9.740;2023-11-18T01:51:29;1.17;;;1.07;;
4963;SDS011;2497;47.410;9.740;2023-11-18T01:53:56;3.80;;;2.27;;
4963;SDS011;2497;47.410;9.740;2023-11-18T01:56:26;7.13;;;3.10;;
4963;SDS011;2497;47.410;9.740;2023-11-18T01:58:54;2.60;;;2.40;;
4963;SDS011;2497;47.410;9.740;2023-11-18T02:01:24;7.63;;;3.57;;
4963;SDS011;2497;47.410;9.740;2023-11-18T02:03:54;6.63;;;6.07;;
4963;SDS011;2497;47.410;9.740;2023-11-18T02:06:21;5.80;;;4.10;;
4963;SDS011;2497;47.410;9.740;2023-11-18T02:08:48;4.10;;;2.23;;
4963;SDS011;2497;47.410;9.740;2023-11-18T02:11:17;4.40;;;3.20;;
4963;SDS011;2497;47.410;9.740;2023-11-18T02:13:54;2.23;;;2.03;;
4963;SDS011;2497;47.410;9.740;2023-11-18T02:16:27;4.20;;;3.80;;
4963;SDS011;2497;47.410;9.740;2023-11-18T02:18:57;1.93;;;1.37;;
4963;SDS011;2497;47.410;9.740;2023-11-18T02:21:25;3.63;;;2.70;;
4963;SDS011;2497;47.410;9.740;2023-11-18T02:23:53;0.80;;;0.70;;
4963;SDS011;2497;47.410;9.740;2023-11-18T02:26:24;2.67;;;1.07;;
4963;SDS011;2497;47.410;9.740;2023-11-18T02:28:51;5.10;;;4.30;;
4963;SDS011;2497;47.410;9.740;2023-11-18T02:31:20;7.93;;;4.80;;
4963;SDS011;2497;47.410;9.740;2023-11-18T02:33:58;3.47;;;2.43;;
4963;SDS011;2497;47.410;9.740;2023-11-18T02:36:31;6.70;;;4.20;;
4963;SDS011;2497;47.410;9.740;2023-11-18T02:39:04;4.03;;;2.70;;
4963;SDS011;2497;47.410;9.740;2023-11-18T02:41:38;3.07;;;2.53;;
4963;SDS011;2497;47.410;9.740;2023-11-18T02:44:06;5.60;;;2.93;;
4963;SDS011;2497;47.410;9.740;2023-11-18T02:46:38;8.73;;;4.60;;
4963;SDS011;2497;47.410;9.740;2023-11-18T02:49:09;13.00;;;2.93;;
4963;SDS011;2497;47.410;9.740;2023-11-18T02:51:38;3.27;;;2.53;;
4963;SDS011;2497;47.410;9.740;2023-11-18T02:54:05;5.40;;;2.40;;
4963;SDS011;2497;47.410;9.740;2023-11-18T02:56:37;6.30;;;4.87;;
4963;SDS011;2497;47.410;9.740;2023-11-18T02:59:04;3.20;;;2.73;;
4963;SDS011;2497;47.410;9.740;2023-11-18T03:01:31;6.93;;;4.70;;
4963;SDS011;2497;47.410;9.740;2023-11-18T03:03:58;8.67;;;4.67;;
4963;SDS011;2497;47.410;9.740;2023-11-18T03:06:25;6.67;;;4.57;;
4963;SDS011;2497;47.410;9.740;2023-11-18T03:08:52;10.90;;;3.70;;
4963;SDS011;2497;47.410;9.740;2023-11-18T03:11:20;9.30;;;3.17;;
4963;SDS011;2497;47.410;9.740;2023-11-18T03:13:49;3.87;;;3.27;;
4963;SDS011;2497;47.410;9.740;2023-11-18T03:16:16;3.77;;;3.23;;
4963;SDS011;2497;47.410;9.740;2023-11-18T03:18:43;7.73;;;4.37;;
4963;SDS011;2497;47.410;9.740;2023-11-18T03:21:10;6.87;;;3.50;;
4963;SDS011;2497;47.410;9.740;2023-11-18T03:23:38;6.13;;;3.57;;
4963;SDS011;2497;47.410;9.740;2023-11-18T03:26:06;4.40;;;3.30;;
4963;SDS011;2497;47.410;9.740;2023-11-18T03:28:33;8.27;;;3.83;;
4963;SDS011;2497;47.410;9.740;2023-11-18T03:31:03;5.20;;;3.40;;
4963;SDS011;2497;47.410;9.740;2023-11-18T03:33:30;6.03;;;3.63;;
4963;SDS011;2497;47.410;9.740;2023-11-18T03:35:57;3.53;;;2.60;;
4963;SDS011;2497;47.410;9.740;2023-11-18T03:38:25;5.10;;;4.60;;
4963;SDS011;2497;47.410;9.740;2023-11-18T03:40:52;4.97;;;3.87;;
4963;SDS011;2497;47.410;9.740;2023-11-18T03:43:20;10.73;;;4.97;;
4963;SDS011;2497;47.410;9.740;2023-11-18T03:45:47;6.73;;;3.83;;
4963;SDS011;2497;47.410;9.740;2023-11-18T03:48:16;8.20;;;4.23;;
4963;SDS011;2497;47.410;9.740;2023-11-18T03:50:43;9.10;;;5.63;;
4963;SDS011;2497;47.410;9.740;2023-11-18T03:53:10;6.60;;;4.07;;
4963;SDS011;2497;47.410;9.740;2023-11-18T03:55:38;4.17;;;3.80;;
4963;SDS011;2497;47.410;9.740;2023-11-18T03:58:05;5.67;;;4.00;;
4963;SDS011;2497;47.410;9.740;2023-11-18T04:00:34;4.50;;;2.80;;
4963;SDS011;2497;47.410;9.740;2023-11-18T04:03:01;7.03;;;4.53;;
4963;SDS011;2497;47.410;9.740;2023-11-18T04:05:30;8.50;;;5.47;;
4963;SDS011;2497;47.410;9.740;2023-11-18T04:07:57;6.30;;;3.90;;
4963;SDS011;2497;47.410;9.740;2023-11-18T04:10:24;14.73;;;3.97;;
4963;SDS011;2497;47.410;9.740;2023-11-18T04:12:51;5.80;;;3.10;;
4963;SDS011;2497;47.410;9.740;2023-11-18T04:15:18;7.87;;;4.43;;
4963;SDS011;2497;47.410;9.740;2023-11-18T04:17:45;9.23;;;3.13;;
4963;SDS011;2497;47.410;9.740;2023-11-18T04:20:12;4.57;;;4.07;;
4963;SDS011;2497;47.410;9.740;2023-11-18T04:22:42;5.60;;;3.77;;
4963;SDS011;2497;47.410;9.740;2023-11-18T04:25:11;8.33;;;3.40;;
4963;SDS011;2497;47.410;9.740;2023-11-18T04:27:38;5.90;;;3.80;;
4963;SDS011;2497;47.410;9.740;2023-11-18T04:30:06;4.10;;;2.37;;
4963;SDS011;2497;47.410;9.740;2023-11-18T04:32:34;5.40;;;2.60;;
4963;SDS011;2497;47.410;9.740;2023-11-18T04:35:01;4.00;;;1.80;;
4963;SDS011;2497;47.410;9.740;2023-11-18T04:37:32;3.63;;;3.30;;
4963;SDS011;2497;47.410;9.740;2023-11-18T04:40:01;5.67;;;4.40;;
4963;SDS011;2497;47.410;9.740;2023-11-18T04:42:29;4.77;;;2.60;;
4963;SDS011;2497;47.410;9.740;2023-11-18T04:44:56;3.20;;;2.47;;
4963;SDS011;2497;47.410;9.740;2023-11-18T04:47:24;4.80;;;3.47;;
4963;SDS011;2497;47.410;9.740;2023-11-18T04:49:52;4.80;;;3.40;;
4963;SDS011;2497;47.410;9.740;2023-11-18T04:52:19;7.37;;;2.13;;
4963;SDS011;2497;47.410;9.740;2023-11-18T04:54:46;9.03;;;2.67;;
4963;SDS011;2497;47.410;9.740;2023-11-18T04:57:15;3.07;;;2.37;;
4963;SDS011;2497;47.410;9.740;2023-11-18T04:59:42;1.67;;;1.57;;
4963;SDS011;2497;47.410;9.740;2023-11-18T05:02:09;3.77;;;2.50;;
4963;SDS011;2497;47.410;9.740;2023-11-18T05:04:36;6.40;;;2.70;;
4963;SDS011;2497;47.410;9.740;2023-11-18T05:07:03;10.83;;;4.50;;
4963;SDS011;2497;47.410;9.740;2023-11-18T05:09:33;14.43;;;3.90;;
4963;SDS011;2497;47.410;9.740;2023-11-18T05:12:00;5.23;;;2.93;;
4963;SDS011;2497;47.410;9.740;2023-11-18T05:14:29;6.97;;;3.20;;
4963;SDS011;2497;47.410;9.740;2023-11-18T05:16:57;4.67;;;2.73;;
4963;SDS011;2497;47.410;9.740;2023-11-18T05:19:24;2.87;;;2.57;;
4963;SDS011;2497;47.410;9.740;2023-11-18T05:21:51;2.70;;;2.50;;
4963;SDS011;2497;47.410;9.740;2023-11-18T05:24:19;4.57;;;3.63;;
4963;SDS011;2497;47.410;9.740;2023-11-18T05:26:46;8.93;;;4.07;;
4963;SDS011;2497;47.410;9.740;2023-11-18T05:29:13;8.10;;;3.60;;
4963;SDS011;2497;47.410;9.740;2023-11-18T05:31:43;2.70;;;2.20;;
4963;SDS011;2497;47.410;9.740;2023-11-18T05:34:10;5.57;;;2.33;;
4963;SDS011;2497;47.410;9.740;2023-11-18T05:36:39;2.17;;;1.97;;
4963;SDS011;2497;47.410;9.740;2023-11-18T05:39:06;2.10;;;1.93;;
4963;SDS011;2497;47.410;9.740;2023-11-18T05:41:34;2.63;;;2.20;;
4963;SDS011;2497;47.410;9.740;2023-11-18T05:44:05;5.37;;;3.10;;
4963;SDS011;2497;47.410;9.740;2023-11-18T05:46:34;3.00;;;2.30;;
4963;SDS011;2497;47.410;9.740;2023-11-18T05:49:03;4.13;;;3.73;;
4963;SDS011;2497;47.410;9.740;2023-11-18T05:51:32;3.00;;;2.40;;
4963;SDS011;2497;47.410;9.740;2023-11-18T05:54:00;4.80;;;4.37;;
4963;SDS011;2497;47.410;9.740;2023-11-18T05:56:27;8.40;;;2.90;;
4963;SDS011;2497;47.410;9.740;2023-11-18T05:58:54;3.00;;;2.67;;
4963;SDS011;2497;47.410;9.740;2023-11-18T06:01:21;8.77;;;2.90;;
4963;SDS011;2497;47.410;9.740;2023-11-18T06:03:49;2.97;;;2.10;;
4963;SDS011;2497;47.410;9.740;2023-11-18T06:06:17;1.40;;;1.10;;
4963;SDS011;2497;47.410;9.740;2023-11-18T06:08:46;1.73;;;1.60;;
4963;SDS011;2497;47.410;9.740;2023-11-18T06:11:14;2.30;;;2.20;;
4963;SDS011;2497;47.410;9.740;2023-11-18T06:13:44;2.10;;;2.00;;
4963;SDS011;2497;47.410;9.740;2023-11-18T06:16:12;3.33;;;1.77;;
4963;SDS011;2497;47.410;9.740;2023-11-18T06:18:41;2.23;;;2.07;;
4963;SDS011;2497;47.410;9.740;2023-11-18T06:21:10;2.20;;;2.00;;
4963;SDS011;2497;47.410;9.740;2023-11-18T06:23:42;1.40;;;1.10;;
4963;SDS011;2497;47.410;9.740;2023-11-18T06:26:10;1.23;;;1.13;;
4963;SDS011;2497;47.410;9.740;2023-11-18T06:28:38;2.67;;;1.20;;
4963;SDS011;2497;47.410;9.740;2023-11-18T06:31:06;1.17;;;0.90;;
4963;SDS011;2497;47.410;9.740;2023-11-18T06:33:37;3.00;;;1.80;;
4963;SDS011;2497;47.410;9.740;2023-11-18T06:36:05;7.00;;;2.83;;
4963;SDS011;2497;47.410;9.740;2023-11-18T06:38:33;9.60;;;3.83;;
4963;SDS011;2497;47.410;9.740;2023-11-18T06:41:03;4.37;;;3.67;;
4963;SDS011;2497;47.410;9.740;2023-11-18T06:43:36;6.30;;;5.70;;
4963;SDS011;2497;47.410;9.740;2023-11-18T06:46:16;7.43;;;5.90;;
4963;SDS011;2497;47.410;9.740;2023-11-18T06:48:46;7.70;;;4.70;;
4963;SDS011;2497;47.410;9.740;2023-11-18T06:51:19;5.40;;;4.97;;
4963;SDS011;2497;47.410;9.740;2023-11-18T06:53:48;7.60;;;4.17;;
4963;SDS011;2497;47.410;9.740;2023-11-18T06:56:17;3.90;;;2.00;;
4963;SDS011;2497;47.410;9.740;2023-11-18T06:58:46;4.20;;;2.40;;
4963;SDS011;2497;47.410;9.740;2023-11-18T07:01:13;3.27;;;3.07;;
4963;SDS011;2497;47.410;9.740;2023-11-18T07:03:41;6.40;;;3.50;;
4963;SDS011;2497;47.410;9.740;2023-11-18T07:06:08;7.20;;;6.00;;
4963;SDS011;2497;47.410;9.740;2023-11-18T07:08:36;8.83;;;7.00;;
4963;SDS011;2497;47.410;9.740;2023-11-18T07:11:04;5.17;;;3.03;;
4963;SDS011;2497;47.410;9.740;2023-11-18T07:13:33;5.30;;;4.50;;
4963;SDS011;2497;47.410;9.740;2023-11-18T07:16:00;14.50;;;3.80;;
4963;SDS011;2497;47.410;9.740;2023-11-18T07:18:28;6.00;;;3.40;;
4963;SDS011;2497;47.410;9.740;2023-11-18T07:20:56;12.00;;;3.73;;
4963;SDS011;2497;47.410;9.740;2023-11-18T07:23:25;6.57;;;5.73;;
4963;SDS011;2497;47.410;9.740;2023-11-18T07:25:52;6.60;;;3.23;;
4963;SDS011;2497;47.410;9.740;2023-11-18T07:28:19;8.33;;;4.30;;
4963;SDS011;2497;47.410;9.740;2023-11-18T07:30:52;6.83;;;4.63;;
4963;SDS011;2497;47.410;9.740;2023-11-18T07:33:19;3.97;;;3.23;;
4963;SDS011;2497;47.410;9.740;2023-11-18T07:35:47;8.77;;;3.37;;
4963;SDS011;2497;47.410;9.740;2023-11-18T07:38:14;6.20;;;2.90;;
4963;SDS011;2497;47.410;9.740;2023-11-18T07:40:43;4.90;;;4.00;;
4963;SDS011;2497;47.410;9.740;2023-11-18T07:43:10;6.80;;;3.60;;
4963;SDS011;2497;47.410;9.740;2023-11-18T07:45:38;9.23;;;5.93;;
4963;SDS011;2497;47.410;9.740;2023-11-18T07:48:08;7.73;;;4.70;;
4963;SDS011;2497;47.410;9.740;2023-11-18T07:50:37;6.07;;;3.50;;
4963;SDS011;2497;47.410;9.740;2023-11-18T07:53:06;4.17;;;3.50;;
4963;SDS011;2497;47.410;9.740;2023-11-18T07:55:34;14.87;;;3.60;;
4963;SDS011;2497;47.410;9.740;2023-11-18T07:58:04;9.83;;;4.27;;
4963;SDS011;2497;47.410;9.740;2023-11-18T08:00:35;5.40;;;3.53;;
4963;SDS011;2497;47.410;9.740;2023-11-18T08:03:04;3.77;;;3.20;;
4963;SDS011;2497;47.410;9.740;2023-11-18T08:05:35;5.60;;;5.10;;
4963;SDS011;2497;47.410;9.740;2023-11-18T08:08:04;6.20;;;3.00;;
4963;SDS011;2497;47.410;9.740;2023-11-18T08:10:32;10.00;;;3.50;;
4963;SDS011;2497;47.410;9.740;2023-11-18T08:13:02;4.83;;;3.83;;
4963;SDS011;2497;47.410;9.740;2023-11-18T08:15:32;3.90;;;3.43;;
4963;SDS011;2497;47.410;9.740;2023-11-18T08:17:59;6.07;;;2.87;;
4963;SDS011;2497;47.410;9.740;2023-11-18T08:20:26;7.67;;;5.47;;
4963;SDS011;2497;47.410;9.740;2023-11-18T08:22:55;5.93;;;5.37;;
4963;SDS011;2497;47.410;9.740;2023-11-18T08:25:22;5.93;;;5.10;;
4963;SDS011;2497;47.410;9.740;2023-11-18T08:27:49;6.83;;;5.10;;
4963;SDS011;2497;47.410;9.740;2023-11-18T08:30:16;9.03;;;4.00;;
4963;SDS011;2497;47.410;9.740;2023-11-18T08:32:45;5.10;;;3.10;;
4963;SDS011;2497;47.410;9.740;2023-11-18T08:35:16;3.37;;;2.30;;
4963;SDS011;2497;47.410;9.740;2023-11-18T08:37:44;3.80;;;3.37;;
4963;SDS011;2497;47.410;9.740;2023-11-18T08:40:14;8.30;;;3.70;;
4963;SDS011;2497;47.410;9.740;2023-11-18T08:42:42;5.30;;;4.83;;
4963;SDS011;2497;47.410;9.740;2023-11-18T08:45:13;6.27;;;4.53;;
4963;SDS011;2497;47.410;9.740;2023-11-18T08:47:42;5.40;;;3.07;;
4963;SDS011;2497;47.410;9.740;2023-11-18T08:50:11;7.60;;;6.03;;
4963;SDS011;2497;47.410;9.740;2023-11-18T08:52:39;6.83;;;4.57;;
4963;SDS011;2497;47.410;9.740;2023-11-18T08:55:09;6.30;;;3.13;;
4963;SDS011;2497;47.410;9.740;2023-11-18T08:57:44;6.33;;;5.13;;
4963;SDS011;2497;47.410;9.740;2023-11-18T09:00:23;8.90;;;6.30;;
4963;SDS011;2497;47.410;9.740;2023-11-18T09:03:07;7.80;;;4.43;;
4963;SDS011;2497;47.410;9.740;2023-11-18T09:05:42;8.13;;;5.37;;
4963;SDS011;2497;47.410;9.740;2023-11-18T09:08:22;11.27;;;4.63;;
4963;SDS011;2497;47.410;9.740;2023-11-18T09:10:50;6.00;;;3.63;;
4963;SDS011;2497;47.410;9.740;2023-11-18T09:13:22;7.60;;;3.90;;
4963;SDS011;2497;47.410;9.740;2023-11-18T09:15:54;4.00;;;3.60;;
4963;SDS011;2497;47.410;9.740;2023-11-18T09:18:22;9.27;;;3.27;;
4963;SDS011;2497;47.410;9.740;2023-11-18T09:20:50;4.53;;;3.50;;
4963;SDS011;2497;47.410;9.740;2023-11-18T09:23:17;4.87;;;4.47;;
4963;SDS011;2497;47.410;9.740;2023-11-18T09:25:45;12.20;;;4.47;;
4963;SDS011;2497;47.410;9.740;2023-11-18T09:28:13;7.10;;;3.30;;
4963;SDS011;2497;47.410;9.740;2023-11-18T09:30:43;5.77;;;3.87;;
4963;SDS011;2497;47.410;9.740;2023-11-18T09:33:18;3.40;;;2.23;;
4963;SDS011;2497;47.410;9.740;2023-11-18T09:35:54;12.63;;;4.10;;
4963;SDS011;2497;47.410;9.740;2023-11-18T09:38:24;2.27;;;2.07;;
4963;SDS011;2497;47.410;9.740;2023-11-18T09:40:54;5.07;;;3.20;;
4963;SDS011;2497;47.410;9.740;2023-11-18T09:43:21;3.97;;;3.67;;
4963;SDS011;2497;47.410;9.740;2023-11-18T09:45:54;10.67;;;4.50;;
4963;SDS011;2497;47.410;9.740;2023-11-18T09:48:21;7.63;;;3.50;;
4963;SDS011;2497;47.410;9.740;2023-11-18T09:50:51;4.90;;;3.30;;
4963;SDS011;2497;47.410;9.740;2023-11-18T09:53:19;8.30;;;4.73;;
4963;SDS011;2497;47.410;9.740;2023-11-18T09:55:52;6.13;;;2.63;;
4963;SDS011;2497;47.410;9.740;2023-11-18T09:58:29;5.23;;;2.10;;
4963;SDS011;2497;47.410;9.740;2023-11-18T10:01:07;3.47;;;2.83;;
4963;SDS011;2497;47.410;9.740;2023-11-18T10:03:39;4.13;;;3.73;;
4963;SDS011;2497;47.410;9.740;2023-11-18T10:06:08;2.43;;;2.23;;
4963;SDS011;2497;47.410;9.740;2023-11-18T10:08:36;6.87;;;3.10;;
4963;SDS011;2497;47.410;9.740;2023-11-18T10:11:04;2.93;;;2.67;;
4963;SDS011;2497;47.410;9.740;2023-11-18T10:13:34;4.57;;;1.77;;
4963;SDS011;2497;47.410;9.740;2023-11-18T10:16:06;1.50;;;1.40;;
4963;SDS011;2497;47.410;9.740;2023-11-18T10:18:35;4.17;;;2.20;;
4963;SDS011;2497;47.410;9.740;2023-11-18T10:21:14;2.70;;;1.60;;
4963;SDS011;2497;47.410;9.740;2023-11-18T10:23:58;3.40;;;2.47;;
4963;SDS011;2497;47.410;9.740;2023-11-18T10:26:27;5.63;;;2.17;;
4963;SDS011;2497;47.410;9.740;2023-11-18T10:28:55;2.43;;;2.23;;
4963;SDS011;2497;47.410;9.740;2023-11-18T10:31:34;1.80;;;1.50;;
4963;SDS011;2497;47.410;9.740;2023-11-18T10:34:02;2.13;;;1.93;;
4963;SDS011;2497;47.410;9.740;2023-11-18T10:36:32;1.33;;;1.23;;
4963;SDS011;2497;47.410;9.740;2023-11-18T10:39:01;1.30;;;1.07;;
4963;SDS011;2497;47.410;9.740;2023-11-18T10:41:39;2.93;;;2.73;;
4963;SDS011;2497;47.410;9.740;2023-11-18T10:44:08;2.87;;;2.00;;
4963;SDS011;2497;47.410;9.740;2023-11-18T10:46:40;2.97;;;1.33;;
4963;SDS011;2497;47.410;9.740;2023-11-18T10:49:08;1.67;;;1.33;;
4963;SDS011;2497;47.410;9.740;2023-11-18T10:51:35;2.50;;;1.13;;
4963;SDS011;2497;47.410;9.740;2023-11-18T10:54:04;1.00;;;0.90;;
4963;SDS011;2497;47.410;9.740;2023-11-18T10:56:46;1.30;;;0.87;;
4963;SDS011;2497;47.410;9.740;2023-11-18T10:59:14;4.07;;;1.47;;
4963;SDS011;2497;47.410;9.740;2023-11-18T11:01:44;2.70;;;1.10;;
4963;SDS011;2497;47.410;9.740;2023-11-18T11:04:14;2.03;;;1.83;;
4963;SDS011;2497;47.410;9.740;2023-11-18T11:06:46;1.20;;;1.10;;
4963;SDS011;2497;47.410;9.740;2023-11-18T11:09:18;1.37;;;1.27;;
4963;SDS011;2497;47.410;9.740;2023-11-18T11:11:52;1.20;;;1.10;;
4963;SDS011;2497;47.410;9.740;2023-11-18T11:14:22;1.87;;;1.27;;
4963;SDS011;2497;47.410;9.740;2023-11-18T11:17:03;1.00;;;0.90;;
4963;SDS011;2497;47.410;9.740;2023-11-18T11:19:38;1.87;;;1.37;;
4963;SDS011;2497;47.410;9.740;2023-11-18T11:22:14;5.23;;;2.13;;
4963;SDS011;2497;47.410;9.740;2023-11-18T11:24:54;3.07;;;1.07;;
4963;SDS011;2497;47.410;9.740;2023-11-18T11:27:28;2.70;;;1.83;;
4963;SDS011;2497;47.410;9.740;2023-11-18T11:30:07;2.30;;;2.03;;
4963;SDS011;2497;47.410;9.740;2023-11-18T11:32:45;2.03;;;1.40;;
4963;SDS011;2497;47.410;9.740;2023-11-18T11:35:22;3.83;;;1.53;;
4963;SDS011;2497;47.410;9.740;2023-11-18T11:37:58;1.40;;;1.30;;
4963;SDS011;2497;47.410;9.740;2023-11-18T11:40:34;2.10;;;1.40;;
4963;SDS011;2497;47.410;9.740;2023-11-18T11:43:03;1.23;;;1.13;;
4963;SDS011;2497;47.410;9.740;2023-11-18T11:45:35;1.70;;;1.33;;
4963;SDS011;2497;47.410;9.740;2023-11-18T11:48:06;2.13;;;1.20;;
4963;SDS011;2497;47.410;9.740;2023-11-18T11:50:54;1.10;;;1.00;;
4963;SDS011;2497;47.410;9.740;2023-11-18T11:53:30;1.67;;;1.57;;
4963;SDS011;2497;47.410;9.740;2023-11-18T11:56:04;2.03;;;1.83;;
4963;SDS011;2497;47.410;9.740;2023-11-18T11:58:33;1.47;;;1.37;;
4963;SDS011;2497;47.410;9.740;2023-11-18T12:01:02;2.47;;;2.27;;
4963;SDS011;2497;47.410;9.740;2023-11-18T12:03:45;1.87;;;1.10;;
4963;SDS011;2497;47.410;9.740;2023-11-18T12:06:17;1.10;;;1.00;;
4963;SDS011;2497;47.410;9.740;2023-11-18T12:08:48;1.20;;;1.03;;
4963;SDS011;2497;47.410;9.740;2023-11-18T12:11:17;3.90;;;1.37;;
4963;SDS011;2497;47.410;9.740;2023-11-18T12:13:59;1.83;;;1.23;;
4963;SDS011;2497;47.410;9.740;2023-11-18T12:19:40;1.63;;;1.13;;
4963;SDS011;2497;47.410;9.740;2023-11-18T12:22:12;1.30;;;1.20;;
4963;SDS011;2497;47.410;9.740;2023-11-18T12:24:43;1.67;;;1.47;;
4963;SDS011;2497;47.410;9.740;2023-11-18T12:27:12;1.90;;;1.53;;
4963;SDS011;2497;47.410;9.740;2023-11-18T12:29:42;2.03;;;1.83;;
4963;SDS011;2497;47.410;9.740;2023-11-18T12:32:10;1.10;;;1.00;;
4963;SDS011;2497;47.410;9.740;2023-11-18T12:34:52;1.57;;;1.43;;
4963;SDS011;2497;47.410;9.740;2023-11-18T12:37:28;1.50;;;1.40;;
4963;SDS011;2497;47.410;9.740;2023-11-18T12:40:23;4.30;;;2.20;;
4963;SDS011;2497;47.410;9.740;2023-11-18T12:43:16;1.30;;;1.20;;
4963;SDS011;2497;47.410;9.740;2023-11-18T12:48:50;1.37;;;1.10;;
4963;SDS011;2497;47.410;9.740;2023-11-18T12:51:22;1.20;;;1.10;;
4963;SDS011;2497;47.410;9.740;2023-11-18T12:53:49;4.40;;;2.07;;
4963;SDS011;2497;47.410;9.740;2023-11-18T12:56:19;2.37;;;1.73;;
4963;SDS011;2497;47.410;9.740;2023-11-18T12:58:48;1.30;;;1.10;;
4963;SDS011;2497;47.410;9.740;2023-11-18T13:01:16;2.67;;;1.37;;
4963;SDS011;2497;47.410;9.740;2023-11-18T13:03:44;1.73;;;1.53;;
4963;SDS011;2497;47.410;9.740;2023-11-18T13:06:12;1.30;;;1.20;;
4963;SDS011;2497;47.410;9.740;2023-11-18T13:08:41;1.80;;;1.67;;
4963;SDS011;2497;47.410;9.740;2023-11-18T13:11:08;4.90;;;1.50;;
4963;SDS011;2497;47.410;9.740;2023-11-18T13:13:41;3.00;;;2.10;;
4963;SDS011;2497;47.410;9.740;2023-11-18T13:16:08;1.97;;;1.60;;
4963;SDS011;2497;47.410;9.740;2023-11-18T13:18:42;3.43;;;1.97;;
4963;SDS011;2497;47.410;9.740;2023-11-18T13:21:15;2.03;;;1.83;;
4963;SDS011;2497;47.410;9.740;2023-11-18T13:23:48;4.53;;;1.20;;
4963;SDS011;2497;47.410;9.740;2023-11-18T13:26:18;1.87;;;1.47;;
4963;SDS011;2497;47.410;9.740;2023-11-18T13:28:46;1.33;;;1.23;;
4963;SDS011;2497;47.410;9.740;2023-11-18T13:31:14;2.30;;;2.03;;
4963;SDS011;2497;47.410;9.740;2023-11-18T13:33:46;2.90;;;1.53;;
4963;SDS011;2497;47.410;9.740;2023-11-18T13:36:14;2.63;;;1.43;;
4963;SDS011;2497;47.410;9.740;2023-11-18T13:38:41;4.50;;;2.10;;
4963;SDS011;2497;47.410;9.740;2023-11-18T13:41:10;1.97;;;1.63;;
4963;SDS011;2497;47.410;9.740;2023-11-18T13:43:41;3.10;;;1.80;;
4963;SDS011;2497;47.410;9.740;2023-11-18T13:46:12;4.40;;;2.93;;
4963;SDS011;2497;47.410;9.740;2023-11-18T13:48:39;5.27;;;4.27;;
4963;SDS011;2497;47.410;9.740;2023-11-18T13:51:08;8.03;;;3.10;;
4963;SDS011;2497;47.410;9.740;2023-11-18T13:53:39;7.40;;;2.60;;
4963;SDS011;2497;47.410;9.740;2023-11-18T13:56:09;2.60;;;2.40;;
4963;SDS011;2497;47.410;9.740;2023-11-18T13:58:38;2.80;;;1.63;;
4963;SDS011;2497;47.410;9.740;2023-11-18T14:01:05;3.33;;;2.77;;
4963;SDS011;2497;47.410;9.740;2023-11-18T14:03:34;4.17;;;2.80;;
4963;SDS011;2497;47.410;9.740;2023-11-18T14:06:02;2.70;;;1.83;;
4963;SDS011;2497;47.410;9.740;2023-11-18T14:08:35;5.77;;;3.73;;
4963;SDS011;2497;47.410;9.740;2023-11-18T14:11:03;4.53;;;3.33;;
4963;SDS011;2497;47.410;9.740;2023-11-18T14:13:36;8.50;;;5.50;;
4963;SDS011;2497;47.410;9.740;2023-11-18T14:16:04;11.37;;;5.13;;
4963;SDS011;2497;47.410;9.740;2023-11-18T14:18:34;9.77;;;2.90;;
4963;SDS011;2497;47.410;9.740;2023-11-18T14:21:02;3.67;;;2.27;;
4963;SDS011;2497;47.410;9.740;2023-11-18T14:23:32;5.20;;;2.70;;
4963;SDS011;2497;47.410;9.740;2023-11-18T14:25:59;3.90;;;2.70;;
4963;SDS011;2497;47.410;9.740;2023-11-18T14:28:27;1.50;;;1.40;;
4963;SDS011;2497;47.410;9.740;2023-11-18T14:30:57;1.13;;;1.03;;
4963;SDS011;2497;47.410;9.740;2023-11-18T14:33:24;4.10;;;1.70;;
4963;SDS011;2497;47.410;9.740;2023-11-18T14:35:53;1.83;;;1.63;;
4963;SDS011;2497;47.410;9.740;2023-11-18T14:38:21;2.23;;;1.20;;
4963;SDS011;2497;47.410;9.740;2023-11-18T14:40:48;1.00;;;0.90;;
4963;SDS011;2497;47.410;9.740;2023-11-18T14:43:18;1.20;;;0.90;;
4963;SDS011;2497;47.410;9.740;2023-11-18T14:45:46;1.03;;;0.93;;
4963;SDS011;2497;47.410;9.740;2023-11-18T14:48:15;1.00;;;0.90;;
4963;SDS011;2497;47.410;9.740;2023-11-18T14:50:42;1.13;;;1.03;;
4963;SDS011;2497;47.410;9.740;2023-11-18T14:53:10;1.77;;;1.30;;
4963;SDS011;2497;47.410;9.740;2023-11-18T14:55:37;0.90;;;0.80;;
4963;SDS011;2497;47.410;9.740;2023-11-18T14:58:04;1.60;;;1.43;;
4963;SDS011;2497;47.410;9.740;2023-11-18T15:00:32;1.63;;;1.40;;
4963;SDS011;2497;47.410;9.740;2023-11-18T15:02:59;3.13;;;2.10;;
4963;SDS011;2497;47.410;9.740;2023-11-18T15:05:28;0.97;;;0.80;;
4963;SDS011;2497;47.410;9.740;2023-11-18T15:07:56;1.73;;;1.27;;
4963;SDS011;2497;47.410;9.740;2023-11-18T15:10:26;1.53;;;1.40;;
4963;SDS011;2497;47.410;9.740;2023-11-18T15:12:54;1.77;;;1.10;;
4963;SDS011;2497;47.410;9.740;2023-11-18T15:15:23;1.23;;;1.13;;
4963;SDS011;2497;47.410;9.740;2023-11-18T15:17:57;2.20;;;1.20;;
4963;SDS011;2497;47.410;9.740;2023-11-18T15:20:24;1.00;;;0.83;;
4963;SDS011;2497;47.410;9.740;2023-11-18T15:22:53;0.90;;;0.80;;
4963;SDS011;2497;47.410;9.740;2023-11-18T15:25:20;3.13;;;1.43;;
4963;SDS011;2497;47.410;9.740;2023-11-18T15:27:47;6.90;;;2.97;;
4963;SDS011;2497;47.410;9.740;2023-11-18T15:30:17;1.00;;;0.90;;
4963;SDS011;2497;47.410;9.740;2023-11-18T15:32:47;4.70;;;2.37;;
4963;SDS011;2497;47.410;9.740;2023-11-18T15:35:14;1.37;;;1.27;;
4963;SDS011;2497;47.410;9.740;2023-11-18T15:37:42;5.47;;;1.93;;
4963;SDS011;2497;47.410;9.740;2023-11-18T15:40:13;3.07;;;1.30;;